createdAt,value
2023-02-04T00:00:53.150Z,102578.09
2023-02-04T00:03:57.187Z,102585.03
2023-02-04T00:07:01.434Z,102596.28
2023-02-04T00:10:07.053Z,102603.28
2023-02-04T00:13:11.428Z,102610.22
2023-02-04T00:16:15.574Z,102621.50
2023-02-04T00:19:20.231Z,102636.34
2023-02-04T00:22:26.481Z,102646.78
2023-02-04T00:25:30.941Z,102663.31
2023-02-04T00:28:35.303Z,102671.91
2023-02-04T00:31:39.725Z,102678.81
2023-02-04T00:34:44.138Z,102685.69
2023-02-04T00:37:48.179Z,102707.34
2023-02-04T00:40:52.595Z,102717.72
2023-02-04T00:43:56.901Z,102731.59
2023-02-04T00:47:01.612Z,102728.16
2023-02-04T00:50:06.581Z,102736.84
2023-02-04T00:53:10.994Z,102741.25
2023-02-04T00:56:15.137Z,102755.09
2023-02-04T00:59:19.854Z,102755.97
2023-02-04T01:02:24.224Z,102749.88
2023-02-04T01:05:28.730Z,102768.94
2023-02-04T01:08:33.361Z,102764.63
2023-02-04T01:11:37.892Z,102755.09
2023-02-04T01:14:42.299Z,102757.66
2023-02-04T01:17:46.867Z,102761.97
2023-02-04T01:20:51.074Z,102768.81
2023-02-04T01:23:55.430Z,102779.91
2023-02-04T01:27:00.245Z,102784.16
2023-02-04T01:30:06.546Z,102790.94
2023-02-04T01:33:11.512Z,102797.63
2023-02-04T01:36:21.578Z,102802.81
2023-02-04T01:39:26.221Z,102806.13
2023-02-04T01:42:30.826Z,102810.31
2023-02-04T01:45:35.900Z,102817.19
2023-02-04T01:48:40.756Z,102820.41
2023-02-04T01:51:44.901Z,102824.66
2023-02-04T01:54:49.530Z,102828.78
2023-02-04T01:57:55.828Z,102837.31
2023-02-04T02:01:00.268Z,102844.22
2023-02-04T02:04:05.864Z,102853.50
2023-02-04T02:07:11.550Z,102857.72
2023-02-04T02:10:18.267Z,102854.97
2023-02-04T02:13:23.116Z,102864.41
2023-02-04T02:16:27.777Z,102869.41
2023-02-04T02:19:37.549Z,102883.13
2023-02-04T02:23:18.080Z,102899.09
2023-02-04T02:26:23.537Z,102910.28
2023-02-04T02:29:28.317Z,102931.00
2023-02-04T02:32:32.772Z,102939.59
2023-02-04T02:35:37.634Z,102936.09
2023-02-04T02:38:42.202Z,102951.63
2023-02-04T02:41:47.212Z,102961.22
2023-02-04T02:44:52.031Z,102956.81
2023-02-04T02:48:00.327Z,102962.00
2023-02-04T02:51:04.987Z,102958.50
2023-02-04T02:54:35.963Z,102965.28
2023-02-04T02:57:40.371Z,102969.59
2023-02-04T03:00:44.863Z,102977.38
2023-02-04T03:03:52.118Z,102991.22
2023-02-04T03:06:57.096Z,102995.66
2023-02-04T03:10:03.410Z,103005.19
2023-02-04T03:13:08.677Z,103001.75
2023-02-04T03:16:13.415Z,103005.19
2023-02-04T03:19:17.694Z,103018.81
2023-02-04T03:22:22.040Z,103031.72
2023-02-04T03:25:28.295Z,103037.72
2023-02-04T03:28:33.282Z,103037.72
2023-02-04T03:31:38.321Z,103048.94
2023-02-04T03:34:43.067Z,103048.00
2023-02-04T03:37:47.250Z,103049.56
2023-02-04T03:40:51.402Z,103059.06
2023-02-04T03:43:56.286Z,103060.69
2023-02-04T03:47:01.722Z,103066.63
2023-02-04T03:50:06.325Z,103065.72
2023-02-04T03:53:11.126Z,103070.88
2023-02-04T03:56:15.213Z,103069.97
2023-02-04T03:59:19.801Z,103078.44
2023-02-04T04:02:24.197Z,103078.34
2023-02-04T04:05:28.739Z,103085.25
2023-02-04T04:08:33.201Z,103088.75
2023-02-04T04:11:37.316Z,103084.41
2023-02-04T04:14:41.678Z,103091.16
2023-02-04T04:17:45.929Z,103086.84
2023-02-04T04:20:50.120Z,103085.22
2023-02-04T04:23:54.559Z,103083.38
2023-02-04T04:26:58.649Z,103102.13
2023-02-04T04:30:04.071Z,103105.34
2023-02-04T04:33:08.758Z,103116.78
2023-02-04T04:36:13.816Z,103126.19
2023-02-04T04:39:18.103Z,103132.94
2023-02-04T04:42:22.190Z,103141.28
2023-02-04T04:45:26.563Z,103146.41
2023-02-04T04:48:31.120Z,103171.38
2023-02-04T04:51:35.689Z,103174.81
2023-02-04T04:54:39.895Z,103187.72
2023-02-04T04:57:44.016Z,103192.81
2023-02-04T05:00:48.515Z,103197.00
2023-02-04T05:03:52.945Z,103207.28
2023-02-04T05:06:57.950Z,103211.47
2023-02-04T05:10:03.924Z,103216.72
2023-02-04T05:13:08.787Z,103218.59
2023-02-04T05:16:13.845Z,103231.63
2023-02-04T05:19:18.353Z,103237.03
2023-02-04T05:22:22.728Z,103248.31
2023-02-04T05:25:28.777Z,103250.25
2023-02-04T05:28:33.183Z,103255.53
2023-02-04T05:31:37.489Z,103245.28
2023-02-04T05:34:42.326Z,103252.19
2023-02-04T05:37:46.589Z,103247.81
2023-02-04T05:40:50.865Z,103255.53
2023-02-04T05:43:55.499Z,103262.28
2023-02-04T05:46:59.637Z,103261.44
2023-02-04T05:50:04.126Z,103266.41
2023-02-04T05:53:09.596Z,103268.53
2023-02-04T05:56:14.244Z,103279.28
2023-02-04T05:59:18.839Z,103293.69
2023-02-04T06:02:22.991Z,103295.13
2023-02-04T06:05:27.429Z,103285.72
2023-02-04T06:08:31.625Z,103288.41
2023-02-04T06:11:36.445Z,103298.09
2023-02-04T06:14:40.675Z,103306.41
2023-02-04T06:17:44.967Z,103311.34
2023-02-04T06:20:49.289Z,103313.16
2023-02-04T06:23:53.689Z,103316.66
2023-02-04T06:26:57.994Z,103323.06
2023-02-04T06:30:02.218Z,103340.41
2023-02-04T06:33:06.793Z,103353.25
2023-02-04T06:36:11.193Z,103340.34
2023-02-04T06:39:15.198Z,103349.94
2023-02-04T06:42:19.716Z,103362.91
2023-02-04T06:45:23.934Z,103366.63
2023-02-04T06:48:30.100Z,103376.13
2023-02-04T06:51:35.784Z,103382.97
2023-02-04T06:54:40.360Z,103389.91
2023-02-04T06:57:44.720Z,103399.41
2023-02-04T07:00:49.154Z,103414.06
2023-02-04T07:03:53.541Z,103409.19
2023-02-04T07:06:57.941Z,103423.16
2023-02-04T07:10:02.325Z,103419.72
2023-02-04T07:13:06.564Z,103418.91
2023-02-04T07:16:10.857Z,103426.66
2023-02-04T07:19:15.161Z,103435.28
2023-02-04T07:22:19.498Z,103426.66
2023-02-04T07:25:23.652Z,103444.84
2023-02-04T07:28:28.007Z,103446.59
2023-02-04T07:31:32.333Z,103445.75
2023-02-04T07:34:37.274Z,103448.47
2023-02-04T07:37:41.544Z,103456.38
2023-02-04T07:40:46.174Z,103442.59
2023-02-04T07:43:50.941Z,103442.81
2023-02-04T07:46:55.258Z,103440.16
2023-02-04T07:49:59.783Z,103435.75
2023-02-04T07:53:04.286Z,103443.53
2023-02-04T07:56:08.826Z,103451.38
2023-02-04T07:59:13.040Z,103464.13
2023-02-04T08:02:17.438Z,103456.38
2023-02-04T08:05:21.756Z,103456.25
2023-02-04T08:08:26.382Z,103454.63
2023-02-04T08:11:31.350Z,103465.84
2023-02-04T08:14:35.522Z,103474.53
2023-02-04T08:17:39.581Z,103473.78
2023-02-04T08:20:43.892Z,103475.59
2023-02-04T08:23:48.170Z,103484.44
2023-02-04T08:26:52.305Z,103483.78
2023-02-04T08:29:57.104Z,103488.41
2023-02-04T08:33:01.469Z,103486.88
2023-02-04T08:36:07.838Z,103494.59
2023-02-04T08:39:12.662Z,103502.47
2023-02-04T08:42:17.457Z,103514.56
2023-02-04T08:45:22.002Z,103519.63
2023-02-04T08:48:26.002Z,103521.78
2023-02-04T08:51:30.361Z,103521.81
2023-02-04T08:54:36.178Z,103528.78
2023-02-04T08:57:40.767Z,103532.19
2023-02-04T09:00:45.171Z,103527.09
2023-02-04T09:03:49.485Z,103528.22
2023-02-04T09:06:53.854Z,103529.22
2023-02-04T09:09:58.320Z,103530.22
2023-02-04T09:13:02.981Z,103532.97
2023-02-04T09:16:07.382Z,103537.44
2023-02-04T09:19:12.968Z,103539.38
2023-02-04T09:22:17.512Z,103533.59
2023-02-04T09:25:21.760Z,103530.53
2023-02-04T09:28:25.936Z,103530.78
2023-02-04T09:31:30.614Z,103540.50
2023-02-04T09:34:35.242Z,103528.63
2023-02-04T09:37:39.353Z,103529.63
2023-02-04T09:40:49.581Z,103540.44
2023-02-04T09:43:53.726Z,103540.69
2023-02-04T09:47:01.728Z,103545.44
2023-02-04T09:50:16.559Z,103550.09
2023-02-04T09:53:24.499Z,103560.88
2023-02-04T09:56:30.611Z,103556.72
2023-02-04T09:59:36.085Z,103554.75
2023-02-04T10:02:40.648Z,103554.19
2023-02-04T10:05:47.103Z,103546.44
2023-02-04T10:08:53.008Z,103549.72
2023-02-04T10:11:57.378Z,103557.06
2023-02-04T10:15:03.892Z,103544.22
2023-02-04T10:18:08.829Z,103538.50
2023-02-04T10:21:21.802Z,103541.34
2023-02-04T10:24:28.287Z,103536.16
2023-02-04T10:27:33.028Z,103528.50
2023-02-04T10:30:43.822Z,103539.72
2023-02-04T10:33:48.132Z,103539.88
2023-02-04T10:36:57.885Z,103534.75
2023-02-04T10:40:05.442Z,103544.53
2023-02-04T10:43:21.973Z,103537.72
2023-02-04T10:46:32.001Z,103536.97
2023-02-04T10:49:36.625Z,103539.56
2023-02-04T10:52:47.306Z,103535.34
2023-02-04T10:55:51.934Z,103531.03
2023-02-04T10:58:56.482Z,103536.34
2023-02-04T11:02:26.829Z,103529.53
2023-02-04T11:05:34.587Z,103530.38
2023-02-04T11:08:39.838Z,103521.53
2023-02-04T11:11:50.470Z,103519.88
2023-02-04T11:14:57.782Z,103520.03
2023-02-04T11:18:14.170Z,103512.38
2023-02-04T11:21:22.990Z,103534.00
2023-02-04T11:24:34.406Z,103521.94
2023-02-04T11:27:40.381Z,103524.56
2023-02-04T11:30:45.028Z,103516.63
2023-02-04T11:34:02.798Z,103516.53
2023-02-04T11:37:17.305Z,103515.31
2023-02-04T11:40:29.636Z,103542.13
2023-02-04T11:43:35.490Z,103550.25
2023-02-04T11:46:40.517Z,103554.03
2023-02-04T11:49:53.712Z,103561.22
2023-02-04T11:53:02.065Z,103557.00
2023-02-04T11:56:06.668Z,103542.34
2023-02-04T11:59:13.236Z,103550.50
2023-02-04T12:02:26.052Z,103541.22
2023-02-04T12:05:44.939Z,103533.28
2023-02-04T12:08:49.822Z,103533.41
2023-02-04T12:11:57.546Z,103547.31
2023-02-04T12:15:16.635Z,103542.28
2023-02-04T12:18:21.211Z,103535.19
2023-02-04T12:21:25.672Z,103524.94
2023-02-04T12:24:29.913Z,103534.41
2023-02-04T12:27:34.548Z,103524.72
2023-02-04T12:30:38.889Z,103528.19
2023-02-04T12:33:43.073Z,103531.63
2023-02-04T12:36:47.268Z,103531.53
2023-02-04T12:39:51.856Z,103534.00
2023-02-04T12:42:56.255Z,103526.13
2023-02-04T12:46:00.978Z,103531.91
2023-02-04T12:49:08.864Z,103527.66
2023-02-04T12:52:14.228Z,103526.78
2023-02-04T12:55:19.884Z,103538.13
2023-02-04T12:58:24.437Z,103533.56
2023-02-04T13:01:28.776Z,103533.56
2023-02-04T13:04:33.126Z,103544.00
2023-02-04T13:07:40.804Z,103552.94
2023-02-04T13:10:45.407Z,103546.09
2023-02-04T13:13:50.040Z,103555.88
2023-02-04T13:16:54.604Z,103551.44
2023-02-04T13:20:00.608Z,103553.25
2023-02-04T13:23:05.154Z,103560.28
2023-02-04T13:26:10.550Z,103546.41
2023-02-04T13:29:15.112Z,103567.25
2023-02-04T13:32:19.605Z,103566.44
2023-02-04T13:35:25.454Z,103552.47
2023-02-04T13:38:29.642Z,103538.69
2023-02-04T13:41:34.129Z,103549.94
2023-02-04T13:44:38.977Z,103544.50
2023-02-04T13:47:43.574Z,103546.41
2023-02-04T13:50:49.124Z,103568.09
2023-02-04T13:53:53.492Z,103562.03
2023-02-04T13:56:57.769Z,103564.66
2023-02-04T14:00:02.352Z,103562.78
2023-02-04T14:03:07.040Z,103557.50
2023-02-04T14:06:11.541Z,103560.03
2023-02-04T14:09:15.864Z,103559.94
2023-02-04T14:12:20.310Z,103562.25
2023-02-04T14:15:25.151Z,103565.66
2023-02-04T14:18:29.690Z,103575.97
2023-02-04T14:21:33.955Z,103575.81
2023-02-04T14:24:41.099Z,103572.06
2023-02-04T14:27:45.529Z,103573.88
2023-02-04T14:30:50.569Z,103572.13
2023-02-04T14:33:55.282Z,103570.34
2023-02-04T14:37:00.312Z,103581.31
2023-02-04T14:40:05.522Z,103587.22
2023-02-04T14:43:13.187Z,103602.69
2023-02-04T14:46:17.692Z,103604.50
2023-02-04T14:49:24.691Z,103607.00
2023-02-04T14:52:29.908Z,103618.22
2023-02-04T14:55:34.272Z,103620.50
2023-02-04T14:58:38.599Z,103616.84
2023-02-04T15:01:45.290Z,103631.34
2023-02-04T15:04:49.903Z,103632.06
2023-02-04T15:07:54.812Z,103633.78
2023-02-04T15:10:59.192Z,103631.34
2023-02-04T15:14:04.446Z,103633.91
2023-02-04T15:17:08.946Z,103627.81
2023-02-04T15:20:13.395Z,103627.72
2023-02-04T15:23:18.208Z,103626.84
2023-02-04T15:26:24.950Z,103621.25
2023-02-04T15:29:30.444Z,103631.47
2023-02-04T15:32:35.208Z,103635.72
2023-02-04T15:35:39.675Z,103635.78
2023-02-04T15:38:43.900Z,103629.50
2023-02-04T15:41:48.492Z,103637.03
2023-02-04T15:44:53.346Z,103644.66
2023-02-04T15:47:57.768Z,103650.94
2023-02-04T15:51:02.099Z,103650.94
2023-02-04T15:54:06.743Z,103643.84
2023-02-04T15:57:12.138Z,103642.81
2023-02-04T16:00:19.874Z,103640.91
2023-02-04T16:03:24.972Z,103646.84
2023-02-04T16:06:29.355Z,103655.47
2023-02-04T16:09:35.332Z,103652.09
2023-02-04T16:12:39.568Z,103651.97
2023-02-04T16:15:44.044Z,103653.78
2023-02-04T16:18:48.546Z,103664.25
2023-02-04T16:21:53.005Z,103665.78
2023-02-04T16:24:57.337Z,103669.03
2023-02-04T16:28:02.977Z,103665.59
2023-02-04T16:31:10.413Z,103672.38
2023-02-04T16:34:15.025Z,103670.53
2023-02-04T16:37:19.634Z,103680.94
2023-02-04T16:40:24.488Z,103675.72
2023-02-04T16:43:28.985Z,103673.72
2023-02-04T16:46:33.957Z,103662.47
2023-02-04T16:49:38.289Z,103672.78
2023-02-04T16:52:48.000Z,103668.50
2023-02-04T16:55:52.355Z,103675.47
2023-02-04T16:58:56.838Z,103677.97
2023-02-04T17:02:01.834Z,103683.97
2023-02-04T17:05:07.179Z,103677.88
2023-02-04T17:08:13.666Z,103687.31
2023-02-04T17:11:29.847Z,103686.53
2023-02-04T17:14:34.072Z,103694.44
2023-02-04T17:17:38.673Z,103709.88
2023-02-04T17:20:42.989Z,103705.50
2023-02-04T17:23:47.984Z,103703.63
2023-02-04T17:26:52.336Z,103706.06
2023-02-04T17:29:56.570Z,103705.06
2023-02-04T17:33:01.582Z,103707.78
2023-02-04T17:36:07.086Z,103700.94
2023-02-04T17:39:11.613Z,103695.03
2023-02-04T17:42:15.929Z,103703.47
2023-02-04T17:45:20.433Z,103693.88
2023-02-04T17:48:28.714Z,103702.50
2023-02-04T17:51:33.152Z,103690.25
2023-02-04T17:54:38.664Z,103688.53
2023-02-04T17:57:43.749Z,103697.31
2023-02-04T18:00:49.299Z,103700.69
2023-02-04T18:03:53.820Z,103697.13
2023-02-04T18:06:58.243Z,103693.66
2023-02-04T18:10:37.380Z,103691.94
2023-02-04T18:13:42.200Z,103677.44
2023-02-04T18:16:47.183Z,103679.88
2023-02-04T18:19:51.669Z,103685.09
2023-02-04T18:23:02.623Z,103676.38
2023-02-04T18:26:22.985Z,103685.00
2023-02-04T18:29:27.911Z,103688.53
2023-02-04T18:32:42.156Z,103686.59
2023-02-04T18:35:50.315Z,103689.19
2023-02-04T18:38:55.910Z,103682.94
2023-02-04T18:42:00.954Z,103682.84
2023-02-04T18:45:29.506Z,103682.38
2023-02-04T18:49:25.838Z,103677.09
2023-02-04T18:52:37.461Z,103672.75
2023-02-04T18:55:55.186Z,103668.00
2023-02-04T18:58:59.737Z,103671.28
2023-02-04T19:02:42.459Z,103670.34
2023-02-04T19:05:49.504Z,103654.72
2023-02-04T19:09:01.768Z,103652.06
2023-02-04T19:12:32.326Z,103657.91
2023-02-04T19:15:41.327Z,103669.25
2023-02-04T19:18:47.029Z,103667.53
2023-02-04T19:21:52.258Z,103663.16
2023-02-04T19:25:20.135Z,103665.59
2023-02-04T19:28:38.103Z,103661.22
2023-02-04T19:31:42.489Z,103661.38
2023-02-04T19:34:46.903Z,103657.06
2023-02-04T19:38:02.547Z,103656.94
2023-02-04T19:41:30.250Z,103651.66
2023-02-04T19:44:43.317Z,103655.88
2023-02-04T19:47:48.334Z,103644.53
2023-02-04T19:50:53.861Z,103647.72
2023-02-04T19:54:16.492Z,103639.78
2023-02-04T19:57:29.838Z,103633.53
2023-02-04T20:00:34.144Z,103624.75
2023-02-04T20:03:49.888Z,103614.47
2023-02-04T20:06:54.500Z,103624.75
2023-02-04T20:10:08.817Z,103622.16
2023-02-04T20:13:18.142Z,103622.88
2023-02-04T20:17:04.532Z,103619.41
2023-02-04T20:20:31.055Z,103610.75
2023-02-04T20:23:35.589Z,103611.56
2023-02-04T20:26:40.034Z,103599.44
2023-02-04T20:29:44.738Z,103601.75
2023-02-04T20:32:55.922Z,103603.59
2023-02-04T20:36:33.059Z,103605.25
2023-02-04T20:39:41.296Z,103613.78
2023-02-04T20:42:52.971Z,103617.06
2023-02-04T20:46:00.554Z,103630.75
2023-02-04T20:49:25.993Z,103619.31
2023-02-04T20:52:47.530Z,103617.47
2023-02-04T20:56:06.126Z,103618.50
2023-02-04T20:59:30.456Z,103611.25
2023-02-04T21:02:34.888Z,103611.25
2023-02-04T21:05:40.313Z,103606.09
2023-02-04T21:08:47.367Z,103597.34
2023-02-04T21:11:54.349Z,103602.66
2023-02-04T21:14:58.635Z,103600.84
2023-02-04T21:18:02.945Z,103598.91
2023-02-04T21:21:09.293Z,103601.50
2023-02-04T21:24:14.164Z,103597.06
2023-02-04T21:27:21.984Z,103603.91
2023-02-04T21:30:30.246Z,103599.66
2023-02-04T21:33:34.649Z,103608.22
2023-02-04T21:36:39.441Z,103610.63
2023-02-04T21:39:43.998Z,103612.25
2023-02-04T21:42:51.700Z,103610.38
2023-02-04T21:45:56.500Z,103609.50
2023-02-04T21:49:01.440Z,103598.16
2023-02-04T21:52:05.923Z,103605.22
2023-02-04T21:55:12.600Z,103590.56
2023-02-04T21:58:17.157Z,103585.94
2023-02-04T22:01:21.447Z,103591.16
2023-02-04T22:04:25.852Z,103584.06
2023-02-04T22:07:30.522Z,103587.59
2023-02-04T22:10:35.382Z,103595.41
2023-02-04T22:13:58.523Z,103606.53
2023-02-04T22:17:03.417Z,103604.19
2023-02-04T22:20:08.417Z,103606.84
2023-02-04T22:23:13.017Z,103605.91
2023-02-04T22:26:17.384Z,103606.03
2023-02-04T22:29:24.953Z,103600.75
2023-02-04T22:32:30.598Z,103602.50
2023-02-04T22:35:36.804Z,103608.44
2023-02-04T22:38:41.827Z,103607.22
2023-02-04T22:41:46.271Z,103610.47
2023-02-04T22:44:50.648Z,103609.53
2023-02-04T22:47:55.119Z,103615.72
2023-02-04T22:51:03.205Z,103618.31
2023-02-04T22:54:07.919Z,103626.09
2023-02-04T22:57:12.672Z,103623.25
2023-02-04T23:00:17.835Z,103623.25
2023-02-04T23:03:22.610Z,103620.47
2023-02-04T23:06:27.673Z,103614.50
2023-02-04T23:09:33.141Z,103608.41
2023-02-04T23:12:37.799Z,103599.66
2023-02-04T23:15:43.199Z,103589.09
2023-02-04T23:18:47.713Z,103591.75
2023-02-04T23:21:52.162Z,103582.13
2023-02-04T23:24:56.340Z,103581.28
2023-02-04T23:28:00.984Z,103584.59
2023-02-04T23:31:05.255Z,103585.47
2023-02-04T23:34:09.838Z,103584.47
2023-02-04T23:37:14.192Z,103587.69
2023-02-04T23:40:18.690Z,103590.34
2023-02-04T23:43:22.931Z,103588.66
2023-02-04T23:46:27.201Z,103585.16
2023-02-04T23:49:31.712Z,103589.53
2023-02-04T23:52:36.123Z,103593.75
2023-02-04T23:55:40.555Z,103584.22
2023-02-04T23:58:45.002Z,103562.63
